Time;durP1;ratioP1;P1;durP2;ratioP2;P2;SDS_P1;SDS_P2;PMS_P1;PMS_P2;Temp;Humidity;BMP_temperature;BMP_pressure;BME280_temperature;BME280_humidity;BME280_pressure;Samples;Min_cycle;Max_cycle;Signal;HPM_P1;HPM_P2
2022/04/01 00:02:18;;;;;;;6.57;3.77;;;;;;;;;;6280306;22;20721;-86
2022/04/01 00:05:24;;;;;;;6.40;3.70;;;;;;;;;;6262301;22;20173;-86
2022/04/01 00:08:29;;;;;;;6.97;3.87;;;;;;;;;;6262910;22;20169;-86
2022/04/01 00:11:34;;;;;;;6.57;3.87;;;;;;;;;;6281134;22;20165;-86
2022/04/01 00:14:39;;;;;;;6.63;3.57;;;;;;;;;;6263523;22;20169;-86
2022/04/01 00:17:45;;;;;;;6.33;4.10;;;;;;;;;;6263602;22;20169;-86
2022/04/01 00:20:52;;;;;;;4.80;3.53;;;;;;;;;;6263220;22;20911;-86
2022/04/01 00:23:57;;;;;;;5.33;3.23;;;;;;;;;;6280985;22;20174;-87
2022/04/01 00:27:02;;;;;;;7.20;3.67;;;;;;;;;;6280478;22;20170;-86
2022/04/01 00:30:07;;;;;;;5.87;3.47;;;;;;;;;;6263858;22;20288;-85
2022/04/01 00:33:14;;;;;;;6.43;3.93;;;;;;;;;;6263892;22;20165;-86
2022/04/01 00:36:20;;;;;;;5.60;3.53;;;;;;;;;;6284778;22;20174;-87
2022/04/01 00:39:35;;;;;;;8.60;4.30;;;;;;;;;;6299135;22;20217;-88
2022/04/01 00:42:41;;;;;;;6.90;4.00;;;;;;;;;;6294059;22;20634;-85
2022/04/01 00:45:46;;;;;;;6.77;3.70;;;;;;;;;;6289040;22;20169;-85
2022/04/01 00:48:51;;;;;;;6.03;3.30;;;;;;;;;;6283141;22;20165;-86
2022/04/01 00:52:00;;;;;;;6.43;3.70;;;;;;;;;;6283627;22;20174;-85
2022/04/01 00:55:06;;;;;;;5.83;3.33;;;;;;;;;;6281540;22;20177;-86
2022/04/01 00:58:11;;;;;;;7.47;3.47;;;;;;;;;;6285082;22;20609;-85
2022/04/01 01:01:25;;;;;;;6.63;3.67;;;;;;;;;;6298084;22;20190;-83
2022/04/01 01:04:30;;;;;;;5.43;3.40;;;;;;;;;;6283506;22;20178;-85
2022/04/01 01:07:38;;;;;;;5.93;3.37;;;;;;;;;;6282633;22;20169;-86
2022/04/01 01:10:42;;;;;;;5.10;3.13;;;;;;;;;;6281993;22;20216;-85
2022/04/01 01:13:48;;;;;;;4.93;3.10;;;;;;;;;;6264682;22;20158;-86
2022/04/01 01:16:53;;;;;;;7.27;2.93;;;;;;;;;;6282161;22;20267;-86
2022/04/01 01:19:58;;;;;;;4.10;2.70;;;;;;;;;;6263813;22;20174;-85
2022/04/01 01:23:06;;;;;;;4.83;2.83;;;;;;;;;;6283850;22;20188;-86
2022/04/01 01:26:13;;;;;;;4.43;2.80;;;;;;;;;;6272586;22;20173;-86
2022/04/01 01:29:20;;;;;;;3.73;2.30;;;;;;;;;;6284580;22;20237;-86
2022/04/01 01:32:28;;;;;;;3.70;2.30;;;;;;;;;;6285263;22;20169;-86
2022/04/01 01:35:34;;;;;;;3.20;2.37;;;;;;;;;;6285314;22;20603;-85
2022/04/01 01:38:40;;;;;;;4.10;2.80;;;;;;;;;;6268386;22;20170;-85
2022/04/01 01:41:47;;;;;;;4.30;2.60;;;;;;;;;;6268118;22;20188;-86
2022/04/01 01:44:52;;;;;;;4.37;2.63;;;;;;;;;;6285225;22;20701;-85
2022/04/01 01:47:57;;;;;;;3.53;2.10;;;;;;;;;;6267993;22;20165;-86
2022/04/01 01:54:44;;;;;;;2.83;2.07;;;;;;;;;;6285867;22;20169;-86
2022/04/01 01:57:52;;;;;;;3.80;2.33;;;;;;;;;;6267838;22;20284;-83
2022/04/01 02:00:58;;;;;;;3.80;2.57;;;;;;;;;;6284342;22;20325;-86
2022/04/01 02:04:05;;;;;;;4.43;2.50;;;;;;;;;;6284063;22;20224;-87
2022/04/01 02:07:11;;;;;;;4.30;2.60;;;;;;;;;;6287769;22;20236;-86
2022/04/01 02:10:17;;;;;;;4.07;2.30;;;;;;;;;;6285937;22;20173;-84
2022/04/01 02:13:23;;;;;;;3.00;2.20;;;;;;;;;;6284800;22;20169;-85
2022/04/01 02:16:29;;;;;;;3.67;2.10;;;;;;;;;;6283008;22;20193;-86
2022/04/01 02:19:34;;;;;;;4.17;2.57;;;;;;;;;;6284276;22;20237;-86
2022/04/01 02:22:40;;;;;;;4.30;2.37;;;;;;;;;;6264568;22;20525;-85
2022/04/01 02:25:47;;;;;;;3.27;2.13;;;;;;;;;;6280845;22;20169;-85
2022/04/01 02:28:59;;;;;;;3.33;2.13;;;;;;;;;;6263345;22;20166;-86
2022/04/01 02:32:04;;;;;;;4.20;2.47;;;;;;;;;;6279855;22;20181;-86
2022/04/01 02:35:25;;;;;;;3.27;2.20;;;;;;;;;;6280675;22;20170;-85
2022/04/01 02:38:31;;;;;;;3.07;2.23;;;;;;;;;;6279804;22;20169;-86
2022/04/01 02:41:35;;;;;;;4.33;2.40;;;;;;;;;;6279902;22;20193;-86
2022/04/01 02:44:42;;;;;;;3.83;2.50;;;;;;;;;;6281362;22;20180;-85
2022/04/01 02:47:48;;;;;;;3.97;2.40;;;;;;;;;;6263756;22;20182;-85
2022/04/01 02:50:53;;;;;;;2.87;2.10;;;;;;;;;;6263636;22;20174;-86
2022/04/01 02:53:58;;;;;;;2.70;1.90;;;;;;;;;;6281850;22;20510;-85
2022/04/01 02:57:03;;;;;;;2.77;1.90;;;;;;;;;;6281056;22;20259;-86
2022/04/01 03:00:10;;;;;;;3.10;2.00;;;;;;;;;;6280217;22;20174;-85
2022/04/01 03:03:26;;;;;;;4.27;2.20;;;;;;;;;;6281214;22;20170;-85
2022/04/01 03:06:33;;;;;;;2.67;1.90;;;;;;;;;;6262387;22;20165;-86
2022/04/01 03:09:38;;;;;;;2.33;1.93;;;;;;;;;;6263771;22;20721;-86
2022/04/01 03:12:50;;;;;;;1.90;1.60;;;;;;;;;;6280410;22;20553;-85
2022/04/01 03:16:15;;;;;;;2.60;1.73;;;;;;;;;;6280528;22;20695;-87
2022/04/01 03:19:29;;;;;;;3.77;2.07;;;;;;;;;;6263427;22;20594;-85
2022/04/01 03:22:34;;;;;;;2.20;1.87;;;;;;;;;;6263440;22;20295;-84
2022/04/01 03:25:44;;;;;;;2.60;2.00;;;;;;;;;;6280381;22;20169;-85
2022/04/01 03:28:59;;;;;;;2.07;1.60;;;;;;;;;;6263232;22;20174;-86
2022/04/01 03:32:09;;;;;;;2.30;1.90;;;;;;;;;;6262735;22;20717;-86
2022/04/01 03:35:19;;;;;;;2.53;1.90;;;;;;;;;;6281353;22;20166;-85
2022/04/01 03:38:26;;;;;;;3.10;1.80;;;;;;;;;;6264210;22;20296;-85
2022/04/01 03:41:31;;;;;;;3.10;1.90;;;;;;;;;;6264284;22;20217;-85
2022/04/01 03:44:39;;;;;;;2.57;1.70;;;;;;;;;;6280688;22;20188;-85
2022/04/01 03:48:16;;;;;;;2.30;1.73;;;;;;;;;;6278328;22;20521;-85
2022/04/01 03:51:24;;;;;;;3.13;1.80;;;;;;;;;;6280781;22;20197;-85
2022/04/01 03:54:30;;;;;;;2.70;1.90;;;;;;;;;;6262713;22;20170;-86
2022/04/01 03:57:43;;;;;;;2.63;1.80;;;;;;;;;;6282642;22;20620;-85
2022/04/01 04:01:20;;;;;;;3.20;2.10;;;;;;;;;;6253895;22;20186;-86
2022/04/01 04:04:27;;;;;;;3.07;2.10;;;;;;;;;;6283239;22;20220;-86
2022/04/01 04:07:32;;;;;;;3.67;2.30;;;;;;;;;;6265621;22;20225;-87
2022/04/01 04:10:41;;;;;;;2.83;2.10;;;;;;;;;;6263233;22;20185;-86
2022/04/01 04:14:08;;;;;;;3.13;2.30;;;;;;;;;;6280670;22;20166;-86
2022/04/01 04:17:15;;;;;;;2.70;2.10;;;;;;;;;;6281520;22;20208;-87
2022/04/01 04:20:28;;;;;;;2.90;2.30;;;;;;;;;;6266007;22;20672;-86
2022/04/01 04:23:36;;;;;;;3.10;2.10;;;;;;;;;;6282628;22;20178;-85
2022/04/01 04:26:51;;;;;;;3.93;2.10;;;;;;;;;;6280579;22;20166;-86
2022/04/01 04:30:05;;;;;;;2.60;1.90;;;;;;;;;;6282276;22;20372;-85
2022/04/01 04:33:17;;;;;;;2.57;2.00;;;;;;;;;;6280927;22;20189;-86
2022/04/01 04:36:29;;;;;;;4.83;2.47;;;;;;;;;;6280043;22;20189;-86
2022/04/01 04:39:38;;;;;;;3.20;2.53;;;;;;;;;;6280989;22;20165;-85
2022/04/01 04:42:45;;;;;;;3.73;2.30;;;;;;;;;;6263568;22;20218;-86
2022/04/01 04:45:53;;;;;;;5.00;2.37;;;;;;;;;;6280571;22;20244;-85
2022/04/01 04:48:59;;;;;;;3.77;2.57;;;;;;;;;;6263228;22;20166;-85
2022/04/01 04:52:09;;;;;;;4.60;2.77;;;;;;;;;;6281295;22;20283;-85
2022/04/01 04:55:24;;;;;;;3.37;2.50;;;;;;;;;;6281257;22;20162;-84
2022/04/01 04:58:43;;;;;;;2.40;2.20;;;;;;;;;;6263435;22;20613;-85
2022/04/01 05:01:55;;;;;;;4.47;2.50;;;;;;;;;;6280620;22;20218;-85
2022/04/01 05:05:04;;;;;;;7.23;3.00;;;;;;;;;;6280724;22;20630;-84
2022/04/01 05:08:36;;;;;;;6.43;2.97;;;;;;;;;;6282170;22;20169;-85
2022/04/01 05:12:04;;;;;;;4.70;2.40;;;;;;;;;;6279668;22;20190;-84
2022/04/01 05:15:34;;;;;;;5.37;2.57;;;;;;;;;;6271518;22;20258;-86
2022/04/01 05:18:44;;;;;;;4.13;2.40;;;;;;;;;;6283138;22;20245;-84
2022/04/01 05:21:54;;;;;;;5.83;2.97;;;;;;;;;;6284564;22;20181;-83
2022/04/01 05:25:02;;;;;;;4.17;2.53;;;;;;;;;;6280923;22;20169;-84
2022/04/01 05:28:11;;;;;;;3.47;2.43;;;;;;;;;;6280287;22;20571;-84
2022/04/01 05:31:32;;;;;;;3.87;2.50;;;;;;;;;;6279318;22;20574;-85
2022/04/01 05:34:40;;;;;;;3.73;2.50;;;;;;;;;;6262948;22;20165;-84
2022/04/01 05:37:45;;;;;;;4.20;2.50;;;;;;;;;;6279522;22;20299;-84
2022/04/01 05:40:52;;;;;;;4.47;2.60;;;;;;;;;;6281169;22;20588;-83
2022/04/01 05:43:59;;;;;;;3.67;2.47;;;;;;;;;;6262303;22;20655;-84
2022/04/01 05:47:07;;;;;;;7.93;2.83;;;;;;;;;;6279084;22;20173;-82
2022/04/01 05:50:13;;;;;;;4.30;2.80;;;;;;;;;;6280858;22;20174;-84
2022/04/01 05:53:20;;;;;;;4.93;2.80;;;;;;;;;;6260505;22;20197;-83
2022/04/01 05:56:31;;;;;;;3.83;2.70;;;;;;;;;;6261403;22;20504;-84
2022/04/01 05:59:38;;;;;;;7.10;3.33;;;;;;;;;;6279927;22;20169;-83
2022/04/01 06:02:49;;;;;;;5.80;3.60;;;;;;;;;;6279505;22;20218;-84
2022/04/01 06:05:56;;;;;;;5.13;2.90;;;;;;;;;;6279346;22;20170;-84
2022/04/01 06:09:05;;;;;;;4.97;3.07;;;;;;;;;;6279574;22;20174;-84
2022/04/01 06:12:39;;;;;;;6.40;3.50;;;;;;;;;;6279428;22;20537;-84
2022/04/01 06:15:49;;;;;;;4.67;3.17;;;;;;;;;;6280487;22;20168;-83
2022/04/01 06:19:23;;;;;;;4.70;3.07;;;;;;;;;;6280299;22;20843;-84
2022/04/01 06:22:30;;;;;;;4.03;2.50;;;;;;;;;;6280110;22;20165;-83
2022/04/01 06:25:39;;;;;;;4.43;2.90;;;;;;;;;;6279652;22;20170;-84
2022/04/01 06:28:50;;;;;;;4.80;3.20;;;;;;;;;;6262187;22;20194;-85
2022/04/01 06:31:58;;;;;;;5.03;2.77;;;;;;;;;;6280627;22;20189;-84
2022/04/01 06:35:14;;;;;;;5.07;3.03;;;;;;;;;;6281222;22;20189;-84
2022/04/01 06:38:39;;;;;;;4.43;2.63;;;;;;;;;;6279993;22;20289;-84
2022/04/01 06:41:47;;;;;;;4.47;2.90;;;;;;;;;;6278711;22;20166;-85
2022/04/01 06:45:17;;;;;;;5.57;3.23;;;;;;;;;;6267451;22;20189;-83
2022/04/01 06:49:01;;;;;;;5.37;3.13;;;;;;;;;;6218550;23;20175;-84
2022/04/01 06:52:27;;;;;;;5.47;3.37;;;;;;;;;;6224312;22;21077;-84
2022/04/01 06:55:43;;;;;;;3.70;2.70;;;;;;;;;;6279850;22;20169;-84
2022/04/01 06:59:08;;;;;;;5.20;3.23;;;;;;;;;;6262287;22;20174;-83
2022/04/01 07:02:14;;;;;;;5.90;3.23;;;;;;;;;;6279852;22;20169;-84
2022/04/01 07:05:19;;;;;;;4.63;3.20;;;;;;;;;;6281285;22;20182;-86
2022/04/01 07:08:25;;;;;;;7.13;3.50;;;;;;;;;;6263244;22;20165;-85
2022/04/01 07:11:30;;;;;;;5.30;3.33;;;;;;;;;;6279613;22;20186;-85
2022/04/01 07:14:35;;;;;;;5.70;3.60;;;;;;;;;;6280566;22;20170;-85
2022/04/01 07:17:41;;;;;;;8.30;4.57;;;;;;;;;;6261597;22;20213;-85
2022/04/01 07:20:47;;;;;;;6.47;3.90;;;;;;;;;;6261959;22;20174;-85
2022/04/01 07:23:52;;;;;;;5.57;3.83;;;;;;;;;;6279981;22;20680;-85
2022/04/01 07:26:57;;;;;;;5.20;3.47;;;;;;;;;;6282548;22;20157;-85
2022/04/01 07:30:08;;;;;;;6.27;3.57;;;;;;;;;;6286309;22;20165;-86
2022/04/01 07:33:15;;;;;;;5.70;3.70;;;;;;;;;;6286423;22;20240;-86
2022/04/01 07:36:21;;;;;;;5.40;3.43;;;;;;;;;;6283664;22;20177;-85
2022/04/01 07:39:26;;;;;;;6.90;3.60;;;;;;;;;;6282560;22;20166;-85
2022/04/01 07:42:31;;;;;;;5.67;3.77;;;;;;;;;;6284223;22;20273;-84
2022/04/01 07:45:37;;;;;;;6.07;3.77;;;;;;;;;;6281823;22;20636;-85
2022/04/01 07:48:43;;;;;;;5.57;3.80;;;;;;;;;;6283278;22;20166;-85
2022/04/01 07:51:48;;;;;;;7.47;3.93;;;;;;;;;;6284317;22;20193;-85
2022/04/01 07:54:53;;;;;;;6.53;4.13;;;;;;;;;;6282564;22;20182;-84
2022/04/01 07:57:58;;;;;;;6.40;3.80;;;;;;;;;;6284899;22;20166;-84
2022/04/01 08:01:03;;;;;;;6.23;3.77;;;;;;;;;;6265022;22;20244;-86
2022/04/01 08:04:10;;;;;;;5.97;3.67;;;;;;;;;;6284826;22;20167;-86
2022/04/01 08:07:15;;;;;;;7.50;3.80;;;;;;;;;;6284494;22;20238;-85
2022/04/01 08:10:20;;;;;;;5.97;3.80;;;;;;;;;;6267047;22;20602;-85
2022/04/01 08:13:26;;;;;;;7.03;3.63;;;;;;;;;;6285975;22;20197;-84
2022/04/01 08:16:31;;;;;;;7.37;3.97;;;;;;;;;;6283617;22;20194;-84
2022/04/01 08:19:38;;;;;;;6.43;3.87;;;;;;;;;;6267393;22;20216;-85
2022/04/01 08:22:43;;;;;;;11.50;4.73;;;;;;;;;;6266446;22;20162;-85
2022/04/01 08:25:49;;;;;;;5.47;3.40;;;;;;;;;;6282965;22;20174;-85
2022/04/01 08:28:54;;;;;;;7.20;4.20;;;;;;;;;;6267263;22;20166;-85
2022/04/01 08:32:00;;;;;;;10.90;6.27;;;;;;;;;;6283374;22;20172;-85
2022/04/01 08:35:07;;;;;;;20.47;16.67;;;;;;;;;;6262968;22;20370;-85
2022/04/01 08:38:12;;;;;;;6.37;4.13;;;;;;;;;;6266068;22;20224;-85
2022/04/01 08:41:18;;;;;;;5.57;3.80;;;;;;;;;;6285098;22;20170;-85
2022/04/01 08:44:23;;;;;;;7.07;3.70;;;;;;;;;;6282979;22;20162;-84
2022/04/01 08:47:28;;;;;;;4.70;3.27;;;;;;;;;;6283310;22;20178;-84
2022/04/01 08:50:35;;;;;;;6.27;3.50;;;;;;;;;;6265031;22;20166;-85
2022/04/01 08:53:41;;;;;;;5.00;3.20;;;;;;;;;;6264514;22;20239;-84
2022/04/01 08:56:46;;;;;;;5.70;3.73;;;;;;;;;;6264451;22;20165;-85
2022/04/01 08:59:57;;;;;;;7.30;3.97;;;;;;;;;;6284596;22;20438;-85
2022/04/01 09:03:06;;;;;;;5.90;3.60;;;;;;;;;;6283407;22;20165;-84
2022/04/01 09:06:12;;;;;;;6.83;4.10;;;;;;;;;;6284389;22;20292;-84
2022/04/01 09:09:29;;;;;;;6.43;3.43;;;;;;;;;;6283594;22;20170;-86
2022/04/01 09:12:35;;;;;;;7.47;4.03;;;;;;;;;;6268948;22;20162;-85
2022/04/01 09:15:41;;;;;;;7.43;3.40;;;;;;;;;;6266942;22;20170;-84
2022/04/01 09:18:47;;;;;;;6.10;3.60;;;;;;;;;;6284820;22;20244;-85
2022/04/01 09:21:54;;;;;;;4.97;3.30;;;;;;;;;;6267753;22;20177;-85
2022/04/01 09:25:02;;;;;;;5.93;2.77;;;;;;;;;;6283444;22;20173;-85
2022/04/01 09:28:08;;;;;;;4.33;2.97;;;;;;;;;;6284919;22;20178;-85
2022/04/01 09:31:14;;;;;;;5.57;3.37;;;;;;;;;;6283632;22;20208;-85
2022/04/01 09:34:19;;;;;;;7.27;4.07;;;;;;;;;;6264530;22;20636;-85
2022/04/01 09:37:37;;;;;;;6.83;3.50;;;;;;;;;;6284831;22;20196;-86
2022/04/01 09:40:44;;;;;;;5.60;3.37;;;;;;;;;;6282635;22;20166;-87
2022/04/01 09:43:49;;;;;;;8.93;3.33;;;;;;;;;;6281756;22;20158;-85
2022/04/01 09:46:56;;;;;;;8.60;3.57;;;;;;;;;;6281704;22;20181;-84
2022/04/01 09:50:04;;;;;;;7.07;3.20;;;;;;;;;;6264109;22;20169;-84
2022/04/01 09:53:12;;;;;;;7.30;4.37;;;;;;;;;;6281116;22;20189;-85
2022/04/01 09:56:17;;;;;;;8.00;4.00;;;;;;;;;;6280800;22;20215;-85
2022/04/01 09:59:34;;;;;;;6.53;3.73;;;;;;;;;;6271136;22;20188;-85
2022/04/01 10:02:40;;;;;;;10.00;3.97;;;;;;;;;;6265103;22;20620;-85
2022/04/01 10:05:46;;;;;;;5.63;3.40;;;;;;;;;;6283770;22;20176;-85
2022/04/01 10:08:53;;;;;;;6.47;3.93;;;;;;;;;;6283663;22;20174;-86
2022/04/01 10:11:59;;;;;;;6.43;3.57;;;;;;;;;;6281457;22;20636;-85
2022/04/01 10:15:07;;;;;;;6.67;3.37;;;;;;;;;;6263774;22;20189;-85
2022/04/01 10:18:12;;;;;;;8.47;4.37;;;;;;;;;;6262667;22;20165;-86
2022/04/01 10:21:20;;;;;;;8.67;5.60;;;;;;;;;;6280976;22;20178;-85
2022/04/01 10:24:31;;;;;;;8.37;4.20;;;;;;;;;;6280776;22;20165;-86
2022/04/01 10:27:39;;;;;;;6.73;3.67;;;;;;;;;;6279379;22;20169;-84
2022/04/01 10:30:52;;;;;;;5.93;3.70;;;;;;;;;;6263974;22;20612;-85
2022/04/01 10:34:12;;;;;;;6.87;3.57;;;;;;;;;;6265030;22;20224;-86
2022/04/01 10:37:21;;;;;;;6.80;3.83;;;;;;;;;;6265686;22;20170;-86
2022/04/01 10:40:32;;;;;;;9.03;4.17;;;;;;;;;;6263469;22;20540;-86
2022/04/01 10:43:40;;;;;;;8.47;4.40;;;;;;;;;;6280788;22;20170;-86
2022/04/01 10:46:57;;;;;;;7.93;3.73;;;;;;;;;;6262401;22;20178;-85
2022/04/01 10:53:45;;;;;;;6.50;4.00;;;;;;;;;;6282174;22;20645;-86
2022/04/01 10:57:00;;;;;;;11.33;6.87;;;;;;;;;;6282401;22;20226;-83
2022/04/01 11:00:08;;;;;;;5.90;3.83;;;;;;;;;;6267941;22;20170;-85
2022/04/01 11:03:24;;;;;;;4.40;3.10;;;;;;;;;;6266567;22;20166;-87
2022/04/01 11:06:29;;;;;;;6.20;3.80;;;;;;;;;;6285173;22;20170;-84
2022/04/01 11:09:40;;;;;;;7.57;4.07;;;;;;;;;;6287967;22;20170;-86
2022/04/01 11:12:52;;;;;;;6.43;3.90;;;;;;;;;;6265885;22;20170;-85
2022/04/01 11:16:12;;;;;;;8.23;4.57;;;;;;;;;;6265722;22;20633;-85
2022/04/01 11:19:18;;;;;;;8.77;4.33;;;;;;;;;;6283192;22;20627;-84
2022/04/01 11:22:36;;;;;;;6.53;3.70;;;;;;;;;;6282686;22;20292;-85
2022/04/01 11:26:02;;;;;;;6.87;3.87;;;;;;;;;;6263360;22;20232;-84
2022/04/01 11:29:16;;;;;;;5.30;3.40;;;;;;;;;;6280600;22;20201;-85
2022/04/01 11:32:22;;;;;;;7.33;3.83;;;;;;;;;;6264081;22;20543;-85
2022/04/01 11:35:31;;;;;;;6.40;3.50;;;;;;;;;;6282521;22;20194;-84
2022/04/01 11:38:37;;;;;;;6.73;3.40;;;;;;;;;;6282250;22;20269;-86
2022/04/01 11:41:47;;;;;;;7.93;3.83;;;;;;;;;;6284208;22;20169;-86
2022/04/01 11:44:58;;;;;;;6.63;3.27;;;;;;;;;;6283628;22;20208;-86
2022/04/01 11:48:04;;;;;;;5.00;3.40;;;;;;;;;;6281592;22;20671;-87
2022/04/01 11:51:10;;;;;;;7.37;3.40;;;;;;;;;;6264380;22;20170;-87
2022/04/01 11:54:17;;;;;;;6.27;3.80;;;;;;;;;;6282970;22;20216;-86
2022/04/01 11:57:21;;;;;;;5.63;3.00;;;;;;;;;;6265705;22;20174;-85
2022/04/01 12:00:28;;;;;;;6.13;3.23;;;;;;;;;;6283399;22;20640;-82
2022/04/01 12:03:34;;;;;;;7.33;3.50;;;;;;;;;;6264638;22;20189;-85
2022/04/01 12:10:04;;;;;;;8.38;3.00;;;;;;;;;;6280938;22;20162;-85
2022/04/01 12:13:12;;;;;;;4.22;2.90;;;;;;;;;;6282510;22;20973;-86
2022/04/01 12:16:21;;;;;;;3.40;2.30;;;;;;;;;;6265614;22;20189;-84
2022/04/01 12:19:26;;;;;;;3.95;2.47;;;;;;;;;;6282504;22;20177;-85
2022/04/01 12:22:35;;;;;;;3.90;2.42;;;;;;;;;;6265482;22;20184;-84
2022/04/01 12:25:41;;;;;;;3.63;2.38;;;;;;;;;;6284119;22;20165;-85
2022/04/01 12:28:47;;;;;;;3.70;2.13;;;;;;;;;;6266223;22;20240;-84
2022/04/01 12:31:55;;;;;;;4.75;2.17;;;;;;;;;;6284919;22;20169;-84
2022/04/01 12:35:02;;;;;;;3.35;2.22;;;;;;;;;;6264785;22;20311;-84
2022/04/01 12:38:09;;;;;;;3.15;2.10;;;;;;;;;;6284510;22;20202;-84
2022/04/01 12:41:18;;;;;;;3.05;2.17;;;;;;;;;;6284499;22;20166;-84
2022/04/01 12:44:24;;;;;;;3.65;2.25;;;;;;;;;;6285079;22;20158;-83
2022/04/01 12:47:32;;;;;;;5.15;2.90;;;;;;;;;;6284400;22;20288;-84
2022/04/01 12:50:38;;;;;;;5.35;2.60;;;;;;;;;;6264604;22;20268;-85
2022/04/01 12:53:52;;;;;;;3.72;2.22;;;;;;;;;;6284455;22;20169;-85
2022/04/01 12:56:59;;;;;;;4.07;2.60;;;;;;;;;;6264644;22;20170;-84
2022/04/01 13:00:14;;;;;;;3.38;2.22;;;;;;;;;;6266648;22;20158;-84
2022/04/01 13:03:26;;;;;;;3.58;2.50;;;;;;;;;;6284688;22;20170;-85
2022/04/01 13:06:32;;;;;;;4.60;2.40;;;;;;;;;;6265479;22;20165;-84
2022/04/01 13:09:47;;;;;;;3.73;2.63;;;;;;;;;;6265466;22;20345;-84
2022/04/01 13:12:53;;;;;;;4.67;2.60;;;;;;;;;;6283703;22;20173;-84
2022/04/01 13:16:02;;;;;;;4.00;2.50;;;;;;;;;;6281062;22;20528;-86
2022/04/01 13:19:26;;;;;;;5.53;2.85;;;;;;;;;;6282688;22;20169;-85
2022/04/01 13:22:31;;;;;;;4.00;3.10;;;;;;;;;;6283137;22;20582;-85
2022/04/01 13:25:36;;;;;;;3.35;2.40;;;;;;;;;;6280922;22;20294;-85
2022/04/01 13:28:41;;;;;;;4.38;2.97;;;;;;;;;;6282455;22;20169;-86
2022/04/01 13:31:46;;;;;;;4.65;3.10;;;;;;;;;;6264974;22;20652;-86
2022/04/01 13:34:53;;;;;;;3.90;2.90;;;;;;;;;;6281861;22;20671;-85
2022/04/01 13:37:58;;;;;;;5.20;2.80;;;;;;;;;;6283236;22;20819;-86
2022/04/01 13:41:03;;;;;;;6.55;3.17;;;;;;;;;;6264970;22;20548;-86
2022/04/01 13:44:09;;;;;;;5.07;3.10;;;;;;;;;;6282007;22;20178;-85
2022/04/01 13:47:14;;;;;;;5.77;3.20;;;;;;;;;;6281830;22;20668;-85
2022/04/01 13:50:21;;;;;;;5.30;2.90;;;;;;;;;;6265528;22;20164;-86
2022/04/01 13:53:26;;;;;;;5.27;3.60;;;;;;;;;;6282889;22;20169;-85
2022/04/01 13:56:31;;;;;;;8.33;3.50;;;;;;;;;;6281931;22;20716;-85
2022/04/01 13:59:39;;;;;;;6.73;3.97;;;;;;;;;;6263381;22;20209;-85
2022/04/01 14:02:44;;;;;;;6.67;3.90;;;;;;;;;;6283041;22;20173;-85
2022/04/01 14:05:51;;;;;;;7.37;3.70;;;;;;;;;;6282785;22;20169;-85
2022/04/01 14:08:56;;;;;;;8.87;2.80;;;;;;;;;;6280209;22;20255;-85
2022/04/01 14:12:01;;;;;;;7.80;3.33;;;;;;;;;;6283500;22;20236;-84
2022/04/01 14:15:07;;;;;;;7.57;3.70;;;;;;;;;;6281746;22;20292;-85
2022/04/01 14:18:13;;;;;;;8.27;3.73;;;;;;;;;;6263406;22;20620;-84
2022/04/01 14:21:21;;;;;;;5.20;3.40;;;;;;;;;;6284342;22;20169;-85
2022/04/01 14:24:26;;;;;;;6.23;4.33;;;;;;;;;;6264037;22;20165;-84
2022/04/01 14:27:31;;;;;;;6.17;4.07;;;;;;;;;;6264915;22;20212;-86
2022/04/01 14:30:36;;;;;;;9.73;4.37;;;;;;;;;;6283127;22;20244;-86
2022/04/01 14:33:43;;;;;;;7.10;4.20;;;;;;;;;;6283564;22;20236;-86
2022/04/01 14:36:49;;;;;;;10.77;5.27;;;;;;;;;;6285058;22;20273;-87
2022/04/01 14:39:55;;;;;;;11.17;5.90;;;;;;;;;;6284257;22;20166;-85
2022/04/01 14:43:02;;;;;;;8.00;4.70;;;;;;;;;;6283658;22;20204;-85
2022/04/01 14:46:08;;;;;;;8.23;5.50;;;;;;;;;;6285006;22;20166;-85
2022/04/01 14:49:13;;;;;;;9.17;6.03;;;;;;;;;;6287649;22;20169;-85
2022/04/01 14:52:21;;;;;;;9.37;5.93;;;;;;;;;;6268800;22;20169;-85
2022/04/01 14:55:26;;;;;;;10.27;6.57;;;;;;;;;;6287142;22;20201;-86
2022/04/01 14:58:32;;;;;;;9.00;5.83;;;;;;;;;;6286031;22;20187;-85
2022/04/01 15:01:37;;;;;;;10.40;6.17;;;;;;;;;;6285792;22;20177;-86
2022/04/01 15:04:42;;;;;;;18.43;8.10;;;;;;;;;;6287185;22;20173;-85
2022/04/01 15:07:49;;;;;;;13.77;7.13;;;;;;;;;;6288178;22;20182;-86
2022/04/01 15:10:55;;;;;;;12.50;7.00;;;;;;;;;;6287726;22;20166;-86
2022/04/01 15:13:59;;;;;;;11.13;7.27;;;;;;;;;;6291668;22;20170;-86
2022/04/01 15:17:31;;;;;;;10.33;6.17;;;;;;;;;;6269479;22;20189;-86
2022/04/01 15:20:37;;;;;;;10.93;6.83;;;;;;;;;;6269093;22;20169;-86
2022/04/01 15:23:43;;;;;;;12.53;7.40;;;;;;;;;;6269323;22;20220;-85
2022/04/01 15:26:49;;;;;;;12.63;7.23;;;;;;;;;;6286296;22;20259;-84
2022/04/01 15:29:54;;;;;;;13.20;7.57;;;;;;;;;;6269424;22;20173;-86
2022/04/01 15:33:10;;;;;;;13.10;7.30;;;;;;;;;;6288809;22;20193;-86
2022/04/01 15:36:19;;;;;;;12.70;7.47;;;;;;;;;;6287828;22;20201;-86
2022/04/01 15:39:28;;;;;;;15.90;7.93;;;;;;;;;;6285722;22;20182;-85
2022/04/01 15:42:33;;;;;;;15.73;7.93;;;;;;;;;;6286765;22;20301;-85
2022/04/01 15:45:40;;;;;;;17.27;9.00;;;;;;;;;;6284173;22;20215;-85
2022/04/01 15:48:49;;;;;;;17.83;9.10;;;;;;;;;;6286348;22;20185;-85
2022/04/01 15:51:57;;;;;;;15.93;8.37;;;;;;;;;;6285081;22;20173;-84
2022/04/01 15:55:05;;;;;;;14.33;8.53;;;;;;;;;;6289875;22;20197;-86
2022/04/01 15:58:14;;;;;;;13.43;8.73;;;;;;;;;;6267193;22;20281;-85
2022/04/01 16:01:21;;;;;;;19.27;9.40;;;;;;;;;;6269947;22;20173;-85
2022/04/01 16:04:28;;;;;;;17.07;9.40;;;;;;;;;;6268535;22;20173;-85
2022/04/01 16:07:34;;;;;;;17.50;10.50;;;;;;;;;;6286670;22;20169;-86
2022/04/01 16:10:42;;;;;;;16.80;9.30;;;;;;;;;;6268607;22;20170;-85
2022/04/01 16:13:49;;;;;;;16.07;8.17;;;;;;;;;;6268523;22;20178;-85
2022/04/01 16:16:57;;;;;;;16.23;8.90;;;;;;;;;;6284871;22;20237;-84
2022/04/01 16:20:02;;;;;;;13.03;7.30;;;;;;;;;;6287329;22;20500;-85
2022/04/01 16:23:09;;;;;;;15.07;9.03;;;;;;;;;;6286625;22;20241;-84
2022/04/01 16:26:15;;;;;;;18.67;8.50;;;;;;;;;;6281979;22;20154;-85
2022/04/01 16:29:20;;;;;;;16.60;8.07;;;;;;;;;;6286409;22;20304;-85
2022/04/01 16:32:25;;;;;;;15.77;9.43;;;;;;;;;;6267316;22;20193;-86
2022/04/01 16:35:31;;;;;;;17.30;9.90;;;;;;;;;;6283185;22;20668;-85
2022/04/01 16:38:37;;;;;;;16.73;9.63;;;;;;;;;;6266964;22;20229;-85
2022/04/01 16:41:44;;;;;;;15.83;9.33;;;;;;;;;;6266025;22;20185;-84
2022/04/01 16:44:50;;;;;;;17.43;9.27;;;;;;;;;;6283346;22;20633;-86
2022/04/01 16:47:55;;;;;;;16.87;9.83;;;;;;;;;;6285295;22;20185;-86
2022/04/01 16:51:00;;;;;;;16.27;9.30;;;;;;;;;;6286394;22;20213;-85
2022/04/01 16:54:07;;;;;;;18.53;9.57;;;;;;;;;;6269306;22;20220;-86
2022/04/01 16:57:14;;;;;;;16.30;9.23;;;;;;;;;;6267505;22;20173;-86
2022/04/01 17:00:19;;;;;;;20.17;10.20;;;;;;;;;;6266123;22;20482;-87
2022/04/01 17:03:25;;;;;;;14.63;8.67;;;;;;;;;;6265720;22;20181;-85
2022/04/01 17:13:18;;;;;;;18.50;11.03;;;;;;;;;;6281764;22;20165;-85
2022/04/01 17:16:23;;;;;;;17.10;9.93;;;;;;;;;;6267539;22;20209;-85
2022/04/01 17:19:28;;;;;;;21.47;10.27;;;;;;;;;;6286158;22;20178;-85
2022/04/01 17:22:33;;;;;;;17.77;10.37;;;;;;;;;;6267444;22;20256;-86
2022/04/01 17:25:39;;;;;;;19.03;10.53;;;;;;;;;;6264157;22;20164;-86
2022/04/01 17:28:46;;;;;;;21.40;11.63;;;;;;;;;;6266647;22;20246;-85
2022/04/01 17:31:53;;;;;;;17.23;10.30;;;;;;;;;;6265517;22;20162;-86
2022/04/01 17:35:02;;;;;;;17.93;9.63;;;;;;;;;;6267193;22;20176;-86
2022/04/01 17:38:07;;;;;;;15.23;9.10;;;;;;;;;;6265017;22;20166;-86
2022/04/01 17:41:13;;;;;;;14.13;8.50;;;;;;;;;;6284159;22;20174;-86
2022/04/01 17:44:19;;;;;;;13.93;8.43;;;;;;;;;;6281966;22;20169;-86
2022/04/01 17:47:25;;;;;;;15.30;7.60;;;;;;;;;;6264502;22;20178;-83
2022/04/01 17:50:34;;;;;;;13.60;7.97;;;;;;;;;;6281648;22;20704;-85
2022/04/01 17:53:39;;;;;;;15.27;9.17;;;;;;;;;;6264362;22;20242;-84
2022/04/01 17:56:47;;;;;;;15.10;8.10;;;;;;;;;;6263993;22;20194;-85
2022/04/01 17:59:56;;;;;;;15.97;8.47;;;;;;;;;;6264664;22;20662;-85
2022/04/01 18:03:01;;;;;;;17.60;8.43;;;;;;;;;;6281099;22;20170;-84
2022/04/01 18:06:07;;;;;;;18.00;8.93;;;;;;;;;;6283175;22;20293;-86
2022/04/01 18:09:13;;;;;;;14.57;8.90;;;;;;;;;;6266340;22;20209;-85
2022/04/01 18:12:19;;;;;;;17.87;9.17;;;;;;;;;;6284715;22;20166;-85
2022/04/01 18:15:26;;;;;;;18.17;8.43;;;;;;;;;;6282894;22;20275;-85
2022/04/01 18:18:35;;;;;;;16.07;8.50;;;;;;;;;;6251978;23;20167;-84
2022/04/01 18:21:41;;;;;;;16.27;8.60;;;;;;;;;;6238352;22;20177;-86
2022/04/01 18:28:10;;;;;;;17.27;9.67;;;;;;;;;;6236499;23;20610;-86
2022/04/01 18:31:18;;;;;;;16.87;10.47;;;;;;;;;;6236053;23;20169;-82
2022/04/01 18:34:24;;;;;;;19.67;10.47;;;;;;;;;;6236287;23;20166;-85
2022/04/01 18:37:31;;;;;;;17.40;10.00;;;;;;;;;;6234461;23;20174;-85
2022/04/01 18:40:38;;;;;;;17.77;8.63;;;;;;;;;;6235239;23;20625;-85
2022/04/01 18:43:45;;;;;;;18.67;9.03;;;;;;;;;;6235880;23;20212;-85
2022/04/01 18:46:52;;;;;;;16.87;9.70;;;;;;;;;;6231844;23;20165;-85
2022/04/01 18:49:58;;;;;;;18.23;10.57;;;;;;;;;;6232207;23;20373;-85
2022/04/01 18:53:03;;;;;;;21.23;12.10;;;;;;;;;;6234192;23;20182;-85
2022/04/01 18:56:08;;;;;;;21.70;11.93;;;;;;;;;;6233501;23;20198;-84
2022/04/01 18:59:14;;;;;;;22.00;11.70;;;;;;;;;;6235864;23;20185;-86
2022/04/01 19:02:26;;;;;;;21.23;10.90;;;;;;;;;;6235834;23;20202;-85
2022/04/01 19:05:33;;;;;;;18.77;11.03;;;;;;;;;;6234257;23;20170;-85